HBBA/BJM METAR and TAF weather

Enter ICAO airport designator
Station Type Date Time Source
HBBA METAR 2019/12/05 18:00 UTC NOAA

HBBA 051800Z 09004KT 9999 SCT025 BKN100 24/21 Q1011 NOSIG


Station Type Date Time Source
HBBA Decoded METAR 2019/12/05 18:00 UTC NOAA

Bujumbura, Burundi (HBBA) 03-19S 029-19E 783M
Dec 05, 2019 - 01:00 PM EST / 2019.12.05 1800 UTC
Wind: from the E (090 degrees) at 5 MPH (4 KT):0
Visibility: greater than 7 mile(s):0
Sky conditions: mostly cloudy
Temperature: 75 F (24 C)
Dew Point: 69 F (21 C)
Relative Humidity: 83%
Pressure (altimeter): 29.85 in. Hg (1011 hPa)
ob: HBBA 051800Z 09004KT 9999 SCT025 BKN100 24/21 Q1011 NOSIG
cycle: 18

Station Type Date Time Source
HBBA TAF 2019/12/05 18:19 UTC NOAA

TAF HBBA 051700Z 0518/0624 18002KT CAVOK
BECMG0602/0604 36002KT 9999 FEW025 BKN100 BECM0607/0609 18010G25KT FEW025 FEW030CB BKN100 PROB30
TEMPO 0612/0618 08015G30KT 5000 SHRA OR TSRA SCT025CB BKN100
BECMG 0618/0620 18003KT CAVOK

Example: see airport list